Nearby METAR Reports

 

KUCP - New Castle Muni, Pennsylvania, USA
Distance from station: ENE 8mi, 13km
Updated: Sun, 18-Aug-2019 7:56am EDT
Mostly cloudy
Mostly cloudy
 Wind from S
Wind: S 3 mph , 6 km/h
Temperature: 72°F , 22°C
Dew Point: 68°F , 20°C
Humidity: 88%
Barometer: 30.01 inHg , 1016.3 hPa
Clouds: Mostly cloudy
Visibility: 10 miles , 16 km
Cloud details: Mostly cloudy 4800 ft
Mostly cloudy 6000 ft
2019/08/18 11:56 KUCP 181156Z AUTO 17003KT 10SM BKN048 BKN060 22/20 A3001 RMK AO2 LTG DSNT N SLP168 6//// 7//// T02170200 10217 20189 53004 PNO $
KBVI - Beaver Falls Arp, Pennsylvania, USA
Distance from station: SSE 16mi, 26km
Updated: Sun, 18-Aug-2019 7:55am EDT
Mist, Partly cloudy
Mist, Partly cloudy
 Wind from SSE
Wind: SSE 6 mph , 9 km/h
Temperature: 70°F , 21°C
Dew Point: 68°F , 20°C
Humidity: 94%
Barometer: 30.02 inHg , 1016.6 hPa
Summary: Mist
Clouds: Partly cloudy
Visibility: 4 miles , 6 km
Cloud details: Partly cloudy 4600 ft
Partly cloudy 6000 ft
2019/08/18 11:55 KBVI 181155Z AUTO 15005KT 4SM BR SCT046 SCT060 21/20 A3002 RMK AO2 LTG DSNT N T02080201
 
KYNG - Youngstown, Ohio, USA
Distance from station: NNW 20mi, 33km
Updated: Sun, 18-Aug-2019 7:51am EDT
Light rain, Overcast
Light rain, Overcast
 Wind from calm
Wind: Calm
Temperature: 72°F , 22°C
Dew Point: 66°F , 19°C
Humidity: 83%
Barometer: 30.00 inHg , 1015.9 hPa
Summary: Light rain
Clouds: Overcast
Visibility: 8 miles , 13 km
Cloud details: Few Clouds 1200 ft
Partly cloudy 2200 ft
Mostly cloudy 4000 ft
Overcast 13000 ft
2019/08/18 11:51 KYNG 181151Z 00000KT 8SM -RA FEW012 SCT022 BKN040 OVC130 22/19 A3000 RMK AO2 RAB33 SLP152 P0003 60003 70009 T02170194 10222 20200 53010 $
KBTP - Butler Co., Pennsylvania, USA
Distance from station: ESE 34mi, 55km
Updated: Sun, 18-Aug-2019 7:56am EDT
Few Clouds
Few Clouds
 Wind from calm
Wind: Calm
Temperature: 70°F , 21°C
Dew Point: 68°F , 20°C
Humidity: 94%
Barometer: 30.03 inHg , 1016.9 hPa
Clouds: Few Clouds
Visibility: 8 miles , 13 km
Cloud details: Few Clouds 4600 ft
2019/08/18 11:56 KBTP 181156Z AUTO 00000KT 8SM FEW046 21/20 A3003 RMK AO2 SLP166 T02110200 10211 20178 53005
 
KPIT - Pittsburgh, Pennsylvania, USA
Distance from station: SSE 36mi, 57km
Updated: Sun, 18-Aug-2019 7:51am EDT
Mist, Mostly cloudy
Mist, Mostly cloudy
 Wind from SSE
Wind: SSE 3 mph , 6 km/h
Temperature: 70°F , 21°C
Dew Point: 66°F , 19°C
Humidity: 88%
Barometer: 30.01 inHg , 1016.3 hPa
Summary: Mist
Clouds: Mostly cloudy
Visibility: 6 miles , 10 km
Cloud details: Few Clouds 4800 ft
Few Clouds 15000 ft
Mostly cloudy 25000 ft
2019/08/18 11:51 KPIT 181151Z 15003KT 6SM BR FEW048 FEW150 BKN250 21/19 A3001 RMK AO2 SLP161 T02110194 10217 20194 53004
KPOV - Ravena/Portage, Ohio, USA
Distance from station: WNW 40mi, 65km
Updated: Sun, 18-Aug-2019 7:55am EDT
Clear
Clear
 Wind from calm
Wind: Calm
Temperature: 68°F , 20°C
Dew Point: 66°F , 19°C
Humidity: 94%
Barometer: 30.01 inHg , 1016.3 hPa
Clouds: Clear
Visibility: 3 miles , 5 km
2019/08/18 11:55 KPOV 181155Z AUTO 00000KT 3SM CLR 20/19 A3001 RMK AO2 T02010190 PWINO
 
KFKL - Franklin, Pennsylvania, USA
Distance from station: NE 45mi, 72km
Updated: Sun, 18-Aug-2019 7:56am EDT
Light rain, Partly cloudy
Light rain, Partly cloudy
 Wind from S
Wind: S 6 mph , 9 km/h
Temperature: 68°F , 20°C
Dew Point: 66°F , 19°C
Humidity: 94%
Barometer: 30.03 inHg , 1016.9 hPa
Summary: Light rain
Clouds: Partly cloudy
Visibility: 10 miles , 16 km
Cloud details: Partly cloudy 3900 ft
Partly cloudy 6000 ft
2019/08/18 11:56 KFKL 181156Z AUTO 17005KT 10SM -RA SCT039 SCT060 20/19 A3003 RMK AO2 LTG DSNT W-N RAB44 SLP162 P0000 60000 7//// T02000189 10200 20167 53006
KCAK - Akron, Ohio, USA
Distance from station: W 47mi, 76km
Updated: Sun, 18-Aug-2019 7:51am EDT
Mostly cloudy
Mostly cloudy
 Wind from WSW
Wind: WSW 3 mph , 6 km/h
Temperature: 73°F , 23°C
Dew Point: 70°F , 21°C
Humidity: 89%
Barometer: 30.01 inHg , 1016.3 hPa
Clouds: Mostly cloudy
Visibility: 10 miles , 16 km
Cloud details: Few Clouds 5000 ft
Mostly cloudy 9000 ft
Mostly cloudy 25000 ft
2019/08/18 11:51 KCAK 181151Z 24003KT 10SM FEW050 BKN090 BKN250 23/21 A3001 RMK AO2 SLP153 70009 T02280206 10233 20222 53013
 
KAKR - Akron (fulton), Ohio, USA
Distance from station: W 48mi, 77km
Updated: Sun, 18-Aug-2019 7:54am EDT
Few Clouds
Few Clouds
 Wind from SW
Wind: SW 3 mph , 6 km/h
Temperature: 73°F , 23°C
Dew Point: 70°F , 21°C
Humidity: 89%
Barometer: 30.00 inHg , 1015.9 hPa
Clouds: Few Clouds
Visibility: 10 miles , 16 km
Cloud details: Few Clouds 10000 ft
2019/08/18 11:54 KAKR 181154Z AUTO 23003KT 10SM FEW100 23/21 A3000 RMK AO2 RAE1059 SLP149 P0000 60002 70002 T02330206 10239 20222 53011
KGKJ - Meadville, Pennsylvania, USA
Distance from station: NNE 49mi, 79km
Updated: Sun, 18-Aug-2019 7:53am EDT
Mostly cloudy
Mostly cloudy
 Wind from WNW
Wind: WNW 7 mph , 11 km/h
Temperature: 70°F , 21°C
Dew Point: 64°F , 18°C
Humidity: 83%
Barometer: 30.03 inHg , 1016.9 hPa
Clouds: Mostly cloudy
Visibility: 10 miles , 16 km
Cloud details: Few Clouds 2600 ft
Mostly cloudy 3300 ft
Mostly cloudy 7000 ft
2019/08/18 11:53 KGKJ 181153Z AUTO 29006KT 10SM FEW026 BKN033 BKN070 21/18 A3003 RMK AO2 PRESRR SLP162 70083 T02060183 10206 20189 53016 TSNO